sensor_id;sensor_type;location;lat;lon;timestamp;temperature;humidity
23637;DHT22;11995;50.842;4.456;2023-05-07T00:00:38;17.30;99.90
23637;DHT22;11995;50.842;4.456;2023-05-07T00:03:06;17.40;99.90
23637;DHT22;11995;50.842;4.456;2023-05-07T00:05:34;17.40;99.90
23637;DHT22;11995;50.842;4.456;2023-05-07T00:08:02;17.40;99.90
23637;DHT22;11995;50.842;4.456;2023-05-07T00:10:30;17.30;99.90
23637;DHT22;11995;50.842;4.456;2023-05-07T00:12:57;17.40;99.90
23637;DHT22;11995;50.842;4.456;2023-05-07T00:15:25;17.40;99.90
23637;DHT22;11995;50.842;4.456;2023-05-07T00:17:53;17.40;99.90
23637;DHT22;11995;50.842;4.456;2023-05-07T00:20:20;17.40;99.90
23637;DHT22;11995;50.842;4.456;2023-05-07T00:22:48;17.40;99.90
23637;DHT22;11995;50.842;4.456;2023-05-07T00:25:15;17.50;99.90
23637;DHT22;11995;50.842;4.456;2023-05-07T00:27:43;17.50;99.90
23637;DHT22;11995;50.842;4.456;2023-05-07T00:30:11;17.50;99.90
23637;DHT22;11995;50.842;4.456;2023-05-07T00:32:39;17.60;99.90
23637;DHT22;11995;50.842;4.456;2023-05-07T00:35:07;17.60;99.90
23637;DHT22;11995;50.842;4.456;2023-05-07T00:37:35;17.60;99.90
23637;DHT22;11995;50.842;4.456;2023-05-07T00:40:03;17.70;99.90
23637;DHT22;11995;50.842;4.456;2023-05-07T00:42:32;17.80;99.90
23637;DHT22;11995;50.842;4.456;2023-05-07T00:44:59;17.80;99.90
23637;DHT22;11995;50.842;4.456;2023-05-07T00:47:27;17.80;99.90
23637;DHT22;11995;50.842;4.456;2023-05-07T00:49:55;17.70;99.90
23637;DHT22;11995;50.842;4.456;2023-05-07T00:52:26;17.60;99.90
23637;DHT22;11995;50.842;4.456;2023-05-07T00:54:54;17.50;99.90
23637;DHT22;11995;50.842;4.456;2023-05-07T00:57:22;17.50;99.90
23637;DHT22;11995;50.842;4.456;2023-05-07T00:59:52;17.40;99.90
23637;DHT22;11995;50.842;4.456;2023-05-07T01:02:20;17.40;99.90
23637;DHT22;11995;50.842;4.456;2023-05-07T01:04:48;17.30;99.90
23637;DHT22;11995;50.842;4.456;2023-05-07T01:07:16;17.40;99.90
23637;DHT22;11995;50.842;4.456;2023-05-07T01:09:43;17.30;99.90
23637;DHT22;11995;50.842;4.456;2023-05-07T01:12:11;17.30;99.90
23637;DHT22;11995;50.842;4.456;2023-05-07T01:14:40;17.30;99.90
23637;DHT22;11995;50.842;4.456;2023-05-07T01:17:07;17.20;99.90
23637;DHT22;11995;50.842;4.456;2023-05-07T01:19:35;17.20;99.90
23637;DHT22;11995;50.842;4.456;2023-05-07T01:22:07;17.20;99.90
23637;DHT22;11995;50.842;4.456;2023-05-07T01:24:33;17.20;99.90
23637;DHT22;11995;50.842;4.456;2023-05-07T01:27:01;17.20;99.90
23637;DHT22;11995;50.842;4.456;2023-05-07T01:29:29;17.10;99.90
23637;DHT22;11995;50.842;4.456;2023-05-07T01:31:58;17.10;99.90
23637;DHT22;11995;50.842;4.456;2023-05-07T01:34:30;17.10;99.90
23637;DHT22;11995;50.842;4.456;2023-05-07T01:36:59;17.10;99.90
23637;DHT22;11995;50.842;4.456;2023-05-07T01:39:28;17.10;99.90
23637;DHT22;11995;50.842;4.456;2023-05-07T01:41:56;17.10;99.90
23637;DHT22;11995;50.842;4.456;2023-05-07T01:44:24;17.10;99.90
23637;DHT22;11995;50.842;4.456;2023-05-07T01:46:52;17.10;99.90
23637;DHT22;11995;50.842;4.456;2023-05-07T01:49:21;17.10;99.90
23637;DHT22;11995;50.842;4.456;2023-05-07T01:51:50;17.10;99.90
23637;DHT22;11995;50.842;4.456;2023-05-07T01:54:18;17.00;99.90
23637;DHT22;11995;50.842;4.456;2023-05-07T01:56:47;16.90;99.90
23637;DHT22;11995;50.842;4.456;2023-05-07T01:59:15;16.90;99.90
23637;DHT22;11995;50.842;4.456;2023-05-07T02:01:42;16.90;99.90
23637;DHT22;11995;50.842;4.456;2023-05-07T02:04:10;16.90;99.90
23637;DHT22;11995;50.842;4.456;2023-05-07T02:06:37;16.90;99.90
23637;DHT22;11995;50.842;4.456;2023-05-07T02:09:05;16.90;99.90
23637;DHT22;11995;50.842;4.456;2023-05-07T02:11:33;16.90;99.90
23637;DHT22;11995;50.842;4.456;2023-05-07T02:14:00;16.90;99.90
23637;DHT22;11995;50.842;4.456;2023-05-07T02:16:28;16.80;99.90
23637;DHT22;11995;50.842;4.456;2023-05-07T02:18:55;16.80;99.90
23637;DHT22;11995;50.842;4.456;2023-05-07T02:21:30;16.80;99.90
23637;DHT22;11995;50.842;4.456;2023-05-07T02:23:57;16.70;99.90
23637;DHT22;11995;50.842;4.456;2023-05-07T02:26:25;16.70;99.90
23637;DHT22;11995;50.842;4.456;2023-05-07T02:28:52;16.70;99.90
23637;DHT22;11995;50.842;4.456;2023-05-07T02:31:20;16.70;99.90
23637;DHT22;11995;50.842;4.456;2023-05-07T02:33:48;16.70;99.90
23637;DHT22;11995;50.842;4.456;2023-05-07T02:36:16;16.70;99.90
23637;DHT22;11995;50.842;4.456;2023-05-07T02:38:43;16.60;99.90
23637;DHT22;11995;50.842;4.456;2023-05-07T02:41:11;16.60;99.90
23637;DHT22;11995;50.842;4.456;2023-05-07T02:43:38;16.50;99.90
23637;DHT22;11995;50.842;4.456;2023-05-07T02:46:07;16.40;99.90
23637;DHT22;11995;50.842;4.456;2023-05-07T02:48:35;16.30;99.90
23637;DHT22;11995;50.842;4.456;2023-05-07T02:51:03;16.20;99.90
23637;DHT22;11995;50.842;4.456;2023-05-07T02:53:31;16.20;99.90
23637;DHT22;11995;50.842;4.456;2023-05-07T02:56:00;16.10;99.90
23637;DHT22;11995;50.842;4.456;2023-05-07T02:58:27;16.00;99.90
23637;DHT22;11995;50.842;4.456;2023-05-07T03:00:55;16.00;99.90
23637;DHT22;11995;50.842;4.456;2023-05-07T03:03:23;16.00;99.90
23637;DHT22;11995;50.842;4.456;2023-05-07T03:05:50;16.00;99.90
23637;DHT22;11995;50.842;4.456;2023-05-07T03:08:18;16.00;99.90
23637;DHT22;11995;50.842;4.456;2023-05-07T03:10:45;16.00;99.90
23637;DHT22;11995;50.842;4.456;2023-05-07T03:13:13;16.00;99.90
23637;DHT22;11995;50.842;4.456;2023-05-07T03:15:41;16.10;99.90
23637;DHT22;11995;50.842;4.456;2023-05-07T03:18:08;16.20;99.90
23637;DHT22;11995;50.842;4.456;2023-05-07T03:20:36;16.20;99.90
23637;DHT22;11995;50.842;4.456;2023-05-07T03:23:04;16.20;99.90
23637;DHT22;11995;50.842;4.456;2023-05-07T03:25:32;16.30;99.90
23637;DHT22;11995;50.842;4.456;2023-05-07T03:28:00;16.30;99.90
23637;DHT22;11995;50.842;4.456;2023-05-07T03:30:27;16.30;99.90
23637;DHT22;11995;50.842;4.456;2023-05-07T03:32:55;16.30;99.90
23637;DHT22;11995;50.842;4.456;2023-05-07T03:35:22;16.30;99.90
23637;DHT22;11995;50.842;4.456;2023-05-07T03:37:50;16.20;99.90
23637;DHT22;11995;50.842;4.456;2023-05-07T03:40:18;16.30;99.90
23637;DHT22;11995;50.842;4.456;2023-05-07T03:42:46;16.20;99.90
23637;DHT22;11995;50.842;4.456;2023-05-07T03:45:13;16.20;99.90
23637;DHT22;11995;50.842;4.456;2023-05-07T03:47:41;16.30;99.90
23637;DHT22;11995;50.842;4.456;2023-05-07T03:50:09;16.30;99.90
23637;DHT22;11995;50.842;4.456;2023-05-07T03:52:37;16.20;99.90
23637;DHT22;11995;50.842;4.456;2023-05-07T03:55:05;16.20;99.90
23637;DHT22;11995;50.842;4.456;2023-05-07T03:57:33;16.30;99.90
23637;DHT22;11995;50.842;4.456;2023-05-07T04:00:01;16.30;99.90
23637;DHT22;11995;50.842;4.456;2023-05-07T04:02:30;16.30;99.90
23637;DHT22;11995;50.842;4.456;2023-05-07T04:04:59;16.40;99.90
23637;DHT22;11995;50.842;4.456;2023-05-07T04:07:26;16.40;99.90
23637;DHT22;11995;50.842;4.456;2023-05-07T04:09:54;16.40;99.90
23637;DHT22;11995;50.842;4.456;2023-05-07T04:12:21;16.40;99.90
23637;DHT22;11995;50.842;4.456;2023-05-07T04:14:49;16.40;99.90
23637;DHT22;11995;50.842;4.456;2023-05-07T04:17:16;16.30;99.90
23637;DHT22;11995;50.842;4.456;2023-05-07T04:19:44;16.30;99.90
23637;DHT22;11995;50.842;4.456;2023-05-07T04:22:12;16.30;99.90
23637;DHT22;11995;50.842;4.456;2023-05-07T04:24:39;16.20;99.90
23637;DHT22;11995;50.842;4.456;2023-05-07T04:27:07;16.30;99.90
23637;DHT22;11995;50.842;4.456;2023-05-07T04:29:34;16.30;99.90
23637;DHT22;11995;50.842;4.456;2023-05-07T04:32:02;16.20;99.90
23637;DHT22;11995;50.842;4.456;2023-05-07T04:34:29;16.00;99.90
23637;DHT22;11995;50.842;4.456;2023-05-07T04:39:45;15.90;99.90
23637;DHT22;11995;50.842;4.456;2023-05-07T04:42:16;16.10;99.90
23637;DHT22;11995;50.842;4.456;2023-05-07T04:44:45;16.20;99.90
23637;DHT22;11995;50.842;4.456;2023-05-07T04:47:13;16.20;99.90
23637;DHT22;11995;50.842;4.456;2023-05-07T04:49:40;16.20;99.90
23637;DHT22;11995;50.842;4.456;2023-05-07T04:52:08;16.20;99.90
23637;DHT22;11995;50.842;4.456;2023-05-07T04:54:35;16.10;99.90
23637;DHT22;11995;50.842;4.456;2023-05-07T04:57:04;16.10;99.90
23637;DHT22;11995;50.842;4.456;2023-05-07T04:59:32;16.10;99.90
23637;DHT22;11995;50.842;4.456;2023-05-07T05:02:00;16.10;99.90
23637;DHT22;11995;50.842;4.456;2023-05-07T05:04:28;16.20;99.90
23637;DHT22;11995;50.842;4.456;2023-05-07T05:06:55;16.30;99.90
23637;DHT22;11995;50.842;4.456;2023-05-07T05:09:23;16.20;99.90
23637;DHT22;11995;50.842;4.456;2023-05-07T05:11:50;16.30;99.90
23637;DHT22;11995;50.842;4.456;2023-05-07T05:14:18;16.50;99.90
23637;DHT22;11995;50.842;4.456;2023-05-07T05:16:45;16.60;99.90
23637;DHT22;11995;50.842;4.456;2023-05-07T05:19:13;16.60;99.90
23637;DHT22;11995;50.842;4.456;2023-05-07T05:21:41;16.70;99.90
23637;DHT22;11995;50.842;4.456;2023-05-07T05:24:08;16.70;99.90
23637;DHT22;11995;50.842;4.456;2023-05-07T05:26:36;16.70;99.90
23637;DHT22;11995;50.842;4.456;2023-05-07T05:29:03;16.70;99.90
23637;DHT22;11995;50.842;4.456;2023-05-07T05:31:31;16.70;99.90
23637;DHT22;11995;50.842;4.456;2023-05-07T05:33:59;16.80;99.90
23637;DHT22;11995;50.842;4.456;2023-05-07T05:36:27;16.80;99.90
23637;DHT22;11995;50.842;4.456;2023-05-07T05:38:55;16.80;99.90
23637;DHT22;11995;50.842;4.456;2023-05-07T05:41:23;16.80;99.90
23637;DHT22;11995;50.842;4.456;2023-05-07T05:43:51;16.80;99.90
23637;DHT22;11995;50.842;4.456;2023-05-07T05:46:19;16.90;99.90
23637;DHT22;11995;50.842;4.456;2023-05-07T05:48:46;16.90;99.90
23637;DHT22;11995;50.842;4.456;2023-05-07T05:51:14;16.90;99.90
23637;DHT22;11995;50.842;4.456;2023-05-07T05:53:41;16.90;99.90
23637;DHT22;11995;50.842;4.456;2023-05-07T05:56:09;17.00;99.90
23637;DHT22;11995;50.842;4.456;2023-05-07T05:58:36;16.90;99.90
23637;DHT22;11995;50.842;4.456;2023-05-07T06:01:04;16.90;99.90
23637;DHT22;11995;50.842;4.456;2023-05-07T06:03:31;16.90;99.90
23637;DHT22;11995;50.842;4.456;2023-05-07T06:05:59;16.90;99.90
23637;DHT22;11995;50.842;4.456;2023-05-07T06:08:31;16.90;99.90
23637;DHT22;11995;50.842;4.456;2023-05-07T06:10:59;16.80;99.90
23637;DHT22;11995;50.842;4.456;2023-05-07T06:13:26;16.80;99.90
23637;DHT22;11995;50.842;4.456;2023-05-07T06:15:54;16.80;99.90
23637;DHT22;11995;50.842;4.456;2023-05-07T06:18:21;16.90;99.90
23637;DHT22;11995;50.842;4.456;2023-05-07T06:20:49;16.90;99.90
23637;DHT22;11995;50.842;4.456;2023-05-07T06:23:16;17.00;99.90
23637;DHT22;11995;50.842;4.456;2023-05-07T06:25:48;16.90;99.90
23637;DHT22;11995;50.842;4.456;2023-05-07T06:28:17;16.80;99.90
23637;DHT22;11995;50.842;4.456;2023-05-07T06:30:45;16.80;99.90
23637;DHT22;11995;50.842;4.456;2023-05-07T06:33:13;16.70;99.90
23637;DHT22;11995;50.842;4.456;2023-05-07T06:35:40;16.80;99.90
23637;DHT22;11995;50.842;4.456;2023-05-07T06:38:08;16.70;99.90
23637;DHT22;11995;50.842;4.456;2023-05-07T06:40:35;16.60;99.90
23637;DHT22;11995;50.842;4.456;2023-05-07T06:43:03;16.50;99.90
23637;DHT22;11995;50.842;4.456;2023-05-07T06:45:30;16.50;99.90
23637;DHT22;11995;50.842;4.456;2023-05-07T06:47:58;16.50;99.90
23637;DHT22;11995;50.842;4.456;2023-05-07T06:50:26;16.40;99.90
23637;DHT22;11995;50.842;4.456;2023-05-07T06:52:53;16.40;99.90
23637;DHT22;11995;50.842;4.456;2023-05-07T06:55:21;16.30;99.90
23637;DHT22;11995;50.842;4.456;2023-05-07T06:57:48;16.50;99.90
23637;DHT22;11995;50.842;4.456;2023-05-07T07:00:16;16.50;99.90
23637;DHT22;11995;50.842;4.456;2023-05-07T07:02:44;16.50;99.90
23637;DHT22;11995;50.842;4.456;2023-05-07T07:05:11;16.60;99.90
23637;DHT22;11995;50.842;4.456;2023-05-07T07:07:39;16.60;99.90
23637;DHT22;11995;50.842;4.456;2023-05-07T07:10:07;16.60;99.90
23637;DHT22;11995;50.842;4.456;2023-05-07T07:12:35;16.60;99.90
23637;DHT22;11995;50.842;4.456;2023-05-07T07:15:02;16.60;99.90
23637;DHT22;11995;50.842;4.456;2023-05-07T07:17:30;16.70;99.90
23637;DHT22;11995;50.842;4.456;2023-05-07T07:19:57;16.80;99.90
23637;DHT22;11995;50.842;4.456;2023-05-07T07:22:25;16.80;99.90
23637;DHT22;11995;50.842;4.456;2023-05-07T07:24:53;16.70;99.90
23637;DHT22;11995;50.842;4.456;2023-05-07T07:27:20;16.70;99.90
23637;DHT22;11995;50.842;4.456;2023-05-07T07:29:48;16.80;99.90
23637;DHT22;11995;50.842;4.456;2023-05-07T07:32:16;16.90;99.90
23637;DHT22;11995;50.842;4.456;2023-05-07T07:34:43;16.90;99.90
23637;DHT22;11995;50.842;4.456;2023-05-07T07:37:11;16.90;99.90
23637;DHT22;11995;50.842;4.456;2023-05-07T07:39:38;16.80;99.90
23637;DHT22;11995;50.842;4.456;2023-05-07T07:42:06;16.80;99.90
23637;DHT22;11995;50.842;4.456;2023-05-07T07:44:33;16.90;99.90
23637;DHT22;11995;50.842;4.456;2023-05-07T07:47:01;17.00;99.90
23637;DHT22;11995;50.842;4.456;2023-05-07T07:49:29;17.00;99.90
23637;DHT22;11995;50.842;4.456;2023-05-07T07:51:57;17.10;99.90
23637;DHT22;11995;50.842;4.456;2023-05-07T07:54:25;17.20;99.90
23637;DHT22;11995;50.842;4.456;2023-05-07T07:56:52;17.10;99.90
23637;DHT22;11995;50.842;4.456;2023-05-07T07:59:20;17.20;99.90
23637;DHT22;11995;50.842;4.456;2023-05-07T08:01:48;17.10;99.90
23637;DHT22;11995;50.842;4.456;2023-05-07T08:04:16;17.10;99.90
23637;DHT22;11995;50.842;4.456;2023-05-07T08:06:43;17.00;99.90
23637;DHT22;11995;50.842;4.456;2023-05-07T08:09:11;16.90;99.90
23637;DHT22;11995;50.842;4.456;2023-05-07T08:11:39;16.90;99.90
23637;DHT22;11995;50.842;4.456;2023-05-07T08:14:07;16.90;99.90
23637;DHT22;11995;50.842;4.456;2023-05-07T08:16:34;16.90;99.90
23637;DHT22;11995;50.842;4.456;2023-05-07T08:19:02;17.00;99.90
23637;DHT22;11995;50.842;4.456;2023-05-07T08:21:30;17.00;99.90
23637;DHT22;11995;50.842;4.456;2023-05-07T08:23:57;17.00;99.90
23637;DHT22;11995;50.842;4.456;2023-05-07T08:26:25;17.10;99.90
23637;DHT22;11995;50.842;4.456;2023-05-07T08:28:52;17.20;99.90
23637;DHT22;11995;50.842;4.456;2023-05-07T08:31:20;17.10;99.90
23637;DHT22;11995;50.842;4.456;2023-05-07T08:33:47;17.20;99.90
23637;DHT22;11995;50.842;4.456;2023-05-07T08:36:15;17.10;99.90
23637;DHT22;11995;50.842;4.456;2023-05-07T08:38:43;17.00;99.90
23637;DHT22;11995;50.842;4.456;2023-05-07T08:41:12;16.80;99.90
23637;DHT22;11995;50.842;4.456;2023-05-07T08:43:41;16.80;99.90
23637;DHT22;11995;50.842;4.456;2023-05-07T08:46:09;16.80;99.90
23637;DHT22;11995;50.842;4.456;2023-05-07T08:48:37;16.90;99.90
23637;DHT22;11995;50.842;4.456;2023-05-07T08:51:05;17.00;99.90
23637;DHT22;11995;50.842;4.456;2023-05-07T08:53:33;17.10;99.90
23637;DHT22;11995;50.842;4.456;2023-05-07T08:56:07;17.10;99.90
23637;DHT22;11995;50.842;4.456;2023-05-07T08:58:35;17.20;99.90
23637;DHT22;11995;50.842;4.456;2023-05-07T09:03:52;17.40;99.90
23637;DHT22;11995;50.842;4.456;2023-05-07T09:06:20;17.60;99.90
23637;DHT22;11995;50.842;4.456;2023-05-07T09:08:52;17.50;99.90
23637;DHT22;11995;50.842;4.456;2023-05-07T09:11:22;17.60;99.90
23637;DHT22;11995;50.842;4.456;2023-05-07T09:13:54;17.60;99.90
23637;DHT22;11995;50.842;4.456;2023-05-07T09:16:42;17.50;99.90
23637;DHT22;11995;50.842;4.456;2023-05-07T09:19:10;17.70;99.90
23637;DHT22;11995;50.842;4.456;2023-05-07T09:21:37;17.70;99.90
23637;DHT22;11995;50.842;4.456;2023-05-07T09:24:05;17.80;99.90
23637;DHT22;11995;50.842;4.456;2023-05-07T09:26:33;17.80;99.90
23637;DHT22;11995;50.842;4.456;2023-05-07T09:29:01;17.90;99.90
23637;DHT22;11995;50.842;4.456;2023-05-07T09:31:28;17.90;99.90
23637;DHT22;11995;50.842;4.456;2023-05-07T09:33:56;18.00;99.90
23637;DHT22;11995;50.842;4.456;2023-05-07T09:36:24;18.00;99.90
23637;DHT22;11995;50.842;4.456;2023-05-07T09:38:54;18.00;99.90
23637;DHT22;11995;50.842;4.456;2023-05-07T09:41:23;18.10;99.90
23637;DHT22;11995;50.842;4.456;2023-05-07T09:43:55;18.10;99.90
23637;DHT22;11995;50.842;4.456;2023-05-07T09:46:25;18.00;99.90
23637;DHT22;11995;50.842;4.456;2023-05-07T09:48:53;18.00;99.90
23637;DHT22;11995;50.842;4.456;2023-05-07T09:51:30;18.00;99.90
23637;DHT22;11995;50.842;4.456;2023-05-07T09:53:59;18.00;99.90
23637;DHT22;11995;50.842;4.456;2023-05-07T09:56:30;18.10;99.90
23637;DHT22;11995;50.842;4.456;2023-05-07T09:59:00;18.10;99.90
23637;DHT22;11995;50.842;4.456;2023-05-07T10:01:32;18.10;99.90
23637;DHT22;11995;50.842;4.456;2023-05-07T10:03:58;18.30;99.90
23637;DHT22;11995;50.842;4.456;2023-05-07T10:06:26;18.30;99.90
23637;DHT22;11995;50.842;4.456;2023-05-07T10:08:54;18.20;99.90
23637;DHT22;11995;50.842;4.456;2023-05-07T10:11:22;18.30;99.90
23637;DHT22;11995;50.842;4.456;2023-05-07T10:13:50;18.20;99.90
23637;DHT22;11995;50.842;4.456;2023-05-07T10:16:20;18.30;99.90
23637;DHT22;11995;50.842;4.456;2023-05-07T10:18:48;18.30;99.90
23637;DHT22;11995;50.842;4.456;2023-05-07T10:21:18;18.30;99.90
23637;DHT22;11995;50.842;4.456;2023-05-07T10:23:50;18.40;99.90
23637;DHT22;11995;50.842;4.456;2023-05-07T10:26:19;18.50;99.90
23637;DHT22;11995;50.842;4.456;2023-05-07T10:28:52;18.50;99.90
23637;DHT22;11995;50.842;4.456;2023-05-07T10:34:14;18.40;99.90
23637;DHT22;11995;50.842;4.456;2023-05-07T10:36:41;18.30;99.90
23637;DHT22;11995;50.842;4.456;2023-05-07T10:39:10;18.20;99.90
23637;DHT22;11995;50.842;4.456;2023-05-07T10:41:39;18.20;99.90
23637;DHT22;11995;50.842;4.456;2023-05-07T10:44:06;18.30;99.90
23637;DHT22;11995;50.842;4.456;2023-05-07T10:46:34;18.40;99.90
23637;DHT22;11995;50.842;4.456;2023-05-07T10:51:33;18.50;99.90
23637;DHT22;11995;50.842;4.456;2023-05-07T10:56:42;18.60;99.90
23637;DHT22;11995;50.842;4.456;2023-05-07T10:59:30;18.70;99.90
23637;DHT22;11995;50.842;4.456;2023-05-07T11:01:59;18.50;99.90
23637;DHT22;11995;50.842;4.456;2023-05-07T11:04:29;18.50;99.90
23637;DHT22;11995;50.842;4.456;2023-05-07T11:09:57;18.50;99.90
23637;DHT22;11995;50.842;4.456;2023-05-07T11:15:11;18.80;99.90
23637;DHT22;11995;50.842;4.456;2023-05-07T11:18:01;18.70;99.90
23637;DHT22;11995;50.842;4.456;2023-05-07T11:20:50;18.50;99.90
23637;DHT22;11995;50.842;4.456;2023-05-07T11:26:10;18.50;99.90
23637;DHT22;11995;50.842;4.456;2023-05-07T11:28:44;18.50;99.90
23637;DHT22;11995;50.842;4.456;2023-05-07T11:31:09;18.50;99.90
23637;DHT22;11995;50.842;4.456;2023-05-07T11:33:37;18.60;99.90
23637;DHT22;11995;50.842;4.456;2023-05-07T11:36:07;18.60;99.90
23637;DHT22;11995;50.842;4.456;2023-05-07T11:38:36;18.60;99.90
23637;DHT22;11995;50.842;4.456;2023-05-07T11:41:04;18.40;99.90
23637;DHT22;11995;50.842;4.456;2023-05-07T11:43:33;18.40;99.90
23637;DHT22;11995;50.842;4.456;2023-05-07T11:46:11;18.60;99.90
23637;DHT22;11995;50.842;4.456;2023-05-07T11:48:36;18.70;99.90
23637;DHT22;11995;50.842;4.456;2023-05-07T11:51:07;18.70;99.90
23637;DHT22;11995;50.842;4.456;2023-05-07T11:53:43;18.80;99.90
23637;DHT22;11995;50.842;4.456;2023-05-07T11:56:12;18.90;99.90
23637;DHT22;11995;50.842;4.456;2023-05-07T11:58:41;18.90;99.90
23637;DHT22;11995;50.842;4.456;2023-05-07T12:01:10;19.10;99.90
23637;DHT22;11995;50.842;4.456;2023-05-07T12:03:40;19.30;99.90
23637;DHT22;11995;50.842;4.456;2023-05-07T12:06:13;19.40;99.90
23637;DHT22;11995;50.842;4.456;2023-05-07T12:08:40;19.50;99.90
23637;DHT22;11995;50.842;4.456;2023-05-07T12:11:11;19.70;99.90
23637;DHT22;11995;50.842;4.456;2023-05-07T12:13:38;19.50;99.90
23637;DHT22;11995;50.842;4.456;2023-05-07T12:16:06;19.40;99.90
23637;DHT22;11995;50.842;4.456;2023-05-07T12:18:35;19.30;99.90
23637;DHT22;11995;50.842;4.456;2023-05-07T12:21:05;19.20;99.90
23637;DHT22;11995;50.842;4.456;2023-05-07T12:23:34;19.30;99.90
23637;DHT22;11995;50.842;4.456;2023-05-07T12:26:03;19.40;99.90
23637;DHT22;11995;50.842;4.456;2023-05-07T12:28:39;19.50;99.90
23637;DHT22;11995;50.842;4.456;2023-05-07T12:31:07;19.50;99.90
23637;DHT22;11995;50.842;4.456;2023-05-07T12:33:36;19.50;99.90
23637;DHT22;11995;50.842;4.456;2023-05-07T12:36:06;19.70;99.90
23637;DHT22;11995;50.842;4.456;2023-05-07T12:38:38;19.70;99.90
23637;DHT22;11995;50.842;4.456;2023-05-07T12:41:08;19.80;99.90
23637;DHT22;11995;50.842;4.456;2023-05-07T12:43:37;19.70;99.90
23637;DHT22;11995;50.842;4.456;2023-05-07T12:46:07;19.60;99.90
23637;DHT22;11995;50.842;4.456;2023-05-07T12:48:37;19.40;99.90
23637;DHT22;11995;50.842;4.456;2023-05-07T12:51:05;19.40;99.90
23637;DHT22;11995;50.842;4.456;2023-05-07T12:53:39;19.50;99.90
23637;DHT22;11995;50.842;4.456;2023-05-07T12:56:06;19.60;99.90
23637;DHT22;11995;50.842;4.456;2023-05-07T12:58:34;19.40;99.90
23637;DHT22;11995;50.842;4.456;2023-05-07T13:01:06;19.40;99.90
23637;DHT22;11995;50.842;4.456;2023-05-07T13:03:35;19.50;99.90
23637;DHT22;11995;50.842;4.456;2023-05-07T13:06:05;19.60;99.90
23637;DHT22;11995;50.842;4.456;2023-05-07T13:11:07;19.70;99.90
23637;DHT22;11995;50.842;4.456;2023-05-07T13:13:36;19.60;99.90
23637;DHT22;11995;50.842;4.456;2023-05-07T13:16:07;19.60;99.90
23637;DHT22;11995;50.842;4.456;2023-05-07T13:18:35;19.60;99.90
23637;DHT22;11995;50.842;4.456;2023-05-07T13:21:03;19.50;99.90
23637;DHT22;11995;50.842;4.456;2023-05-07T13:23:31;19.50;99.90
23637;DHT22;11995;50.842;4.456;2023-05-07T13:25:58;19.50;99.90
23637;DHT22;11995;50.842;4.456;2023-05-07T13:28:28;19.70;99.90
23637;DHT22;11995;50.842;4.456;2023-05-07T13:30:56;19.80;99.90
23637;DHT22;11995;50.842;4.456;2023-05-07T13:33:24;19.90;99.90
23637;DHT22;11995;50.842;4.456;2023-05-07T13:35:51;19.90;99.90
23637;DHT22;11995;50.842;4.456;2023-05-07T13:38:19;19.70;99.90
23637;DHT22;11995;50.842;4.456;2023-05-07T13:40:46;19.60;99.90
23637;DHT22;11995;50.842;4.456;2023-05-07T13:43:14;19.60;99.90
23637;DHT22;11995;50.842;4.456;2023-05-07T13:45:43;19.60;99.90
23637;DHT22;11995;50.842;4.456;2023-05-07T13:48:10;19.60;99.90
23637;DHT22;11995;50.842;4.456;2023-05-07T13:50:38;19.50;99.90
23637;DHT22;11995;50.842;4.456;2023-05-07T13:53:07;19.50;99.90
23637;DHT22;11995;50.842;4.456;2023-05-07T13:55:35;19.60;99.90
23637;DHT22;11995;50.842;4.456;2023-05-07T13:58:03;19.80;99.90
23637;DHT22;11995;50.842;4.456;2023-05-07T14:00:30;19.80;99.90
23637;DHT22;11995;50.842;4.456;2023-05-07T14:02:58;19.90;99.90
23637;DHT22;11995;50.842;4.456;2023-05-07T14:05:26;19.90;99.90
23637;DHT22;11995;50.842;4.456;2023-05-07T14:07:58;20.00;99.90
23637;DHT22;11995;50.842;4.456;2023-05-07T14:10:25;20.00;99.90
23637;DHT22;11995;50.842;4.456;2023-05-07T14:12:53;20.10;99.90
23637;DHT22;11995;50.842;4.456;2023-05-07T14:15:21;20.00;99.90
23637;DHT22;11995;50.842;4.456;2023-05-07T14:17:48;20.00;99.90
23637;DHT22;11995;50.842;4.456;2023-05-07T14:20:16;20.00;99.90
23637;DHT22;11995;50.842;4.456;2023-05-07T14:22:44;19.90;99.90
23637;DHT22;11995;50.842;4.456;2023-05-07T14:25:11;19.90;99.90
23637;DHT22;11995;50.842;4.456;2023-05-07T14:27:39;19.90;99.90
23637;DHT22;11995;50.842;4.456;2023-05-07T14:30:08;19.90;99.90
23637;DHT22;11995;50.842;4.456;2023-05-07T14:32:35;19.90;99.90
23637;DHT22;11995;50.842;4.456;2023-05-07T14:35:03;19.80;99.90
23637;DHT22;11995;50.842;4.456;2023-05-07T14:37:30;19.80;99.90
23637;DHT22;11995;50.842;4.456;2023-05-07T14:39:58;19.70;99.90
23637;DHT22;11995;50.842;4.456;2023-05-07T14:42:26;19.50;99.90
23637;DHT22;11995;50.842;4.456;2023-05-07T14:44:53;19.50;99.90
23637;DHT22;11995;50.842;4.456;2023-05-07T14:47:21;19.60;99.90
23637;DHT22;11995;50.842;4.456;2023-05-07T14:49:48;19.80;99.90
23637;DHT22;11995;50.842;4.456;2023-05-07T14:52:16;19.90;99.90
23637;DHT22;11995;50.842;4.456;2023-05-07T14:54:45;19.90;99.90
23637;DHT22;11995;50.842;4.456;2023-05-07T14:57:13;19.90;99.90
23637;DHT22;11995;50.842;4.456;2023-05-07T14:59:42;20.00;99.90
23637;DHT22;11995;50.842;4.456;2023-05-07T15:02:11;19.90;99.90
23637;DHT22;11995;50.842;4.456;2023-05-07T15:04:38;20.00;99.90
23637;DHT22;11995;50.842;4.456;2023-05-07T15:07:08;20.00;99.90
23637;DHT22;11995;50.842;4.456;2023-05-07T15:09:35;20.10;99.90
23637;DHT22;11995;50.842;4.456;2023-05-07T15:12:03;20.00;99.90
23637;DHT22;11995;50.842;4.456;2023-05-07T15:14:31;19.90;99.90
23637;DHT22;11995;50.842;4.456;2023-05-07T15:16:59;19.80;99.90
23637;DHT22;11995;50.842;4.456;2023-05-07T15:19:26;19.90;99.90
23637;DHT22;11995;50.842;4.456;2023-05-07T15:21:57;19.70;99.90
23637;DHT22;11995;50.842;4.456;2023-05-07T15:24:27;19.70;99.90
23637;DHT22;11995;50.842;4.456;2023-05-07T15:26:55;19.70;99.90
23637;DHT22;11995;50.842;4.456;2023-05-07T15:29:24;19.70;99.90
23637;DHT22;11995;50.842;4.456;2023-05-07T15:31:52;19.50;99.90
23637;DHT22;11995;50.842;4.456;2023-05-07T15:34:20;19.40;99.90
23637;DHT22;11995;50.842;4.456;2023-05-07T15:36:48;19.50;99.90
23637;DHT22;11995;50.842;4.456;2023-05-07T15:39:16;19.60;99.90
23637;DHT22;11995;50.842;4.456;2023-05-07T15:41:43;19.40;99.90
23637;DHT22;11995;50.842;4.456;2023-05-07T15:44:11;19.40;99.90
23637;DHT22;11995;50.842;4.456;2023-05-07T15:46:38;19.30;99.90
23637;DHT22;11995;50.842;4.456;2023-05-07T15:49:06;19.30;99.90
23637;DHT22;11995;50.842;4.456;2023-05-07T15:51:35;19.40;99.90
23637;DHT22;11995;50.842;4.456;2023-05-07T15:54:03;19.20;99.90
23637;DHT22;11995;50.842;4.456;2023-05-07T15:56:31;19.10;99.90
23637;DHT22;11995;50.842;4.456;2023-05-07T15:58:59;18.90;99.90
23637;DHT22;11995;50.842;4.456;2023-05-07T16:01:27;18.90;99.90